createdAt,value
2022-09-28T00:01:15.641Z,14.70
2022-09-28T00:03:49.364Z,14.70
2022-09-28T00:06:24.477Z,14.60
2022-09-28T00:08:57.626Z,14.60
2022-09-28T00:11:48.302Z,14.60
2022-09-28T00:14:21.029Z,14.60
2022-09-28T00:16:53.132Z,14.70
2022-09-28T00:19:25.055Z,14.60
2022-09-28T00:21:56.961Z,14.60
2022-09-28T00:24:29.557Z,14.60
2022-09-28T00:27:02.915Z,14.70
2022-09-28T00:29:37.124Z,14.70
2022-09-28T00:32:13.929Z,14.70
2022-09-28T00:34:46.351Z,14.70
2022-09-28T00:37:19.872Z,14.60
2022-09-28T00:39:51.862Z,14.60
2022-09-28T00:42:25.812Z,14.60
2022-09-28T00:44:59.141Z,14.50
2022-09-28T00:48:00.574Z,14.50
2022-09-28T00:50:36.628Z,14.40
2022-09-28T00:53:18.872Z,14.40
2022-09-28T00:55:55.298Z,14.50
2022-09-28T00:58:31.336Z,14.50
2022-09-28T01:01:04.440Z,14.50
2022-09-28T01:03:38.339Z,14.60
2022-09-28T01:06:10.783Z,14.60
2022-09-28T01:08:44.665Z,14.70
2022-09-28T01:11:19.602Z,14.60
2022-09-28T01:13:56.681Z,14.60
2022-09-28T01:16:49.513Z,14.70
2022-09-28T01:19:51.533Z,14.70
2022-09-28T01:23:01.414Z,14.50
2022-09-28T01:25:58.407Z,14.40
2022-09-28T01:28:31.203Z,14.40
2022-09-28T01:31:10.258Z,14.40
2022-09-28T01:33:45.990Z,14.30
2022-09-28T01:36:36.755Z,14.40
2022-09-28T01:39:16.348Z,14.40
2022-09-28T01:41:52.421Z,14.50
2022-09-28T01:44:26.039Z,14.40
2022-09-28T01:47:04.287Z,14.40
2022-09-28T01:49:45.306Z,14.40
2022-09-28T01:52:33.079Z,14.50
2022-09-28T01:55:11.384Z,14.50
2022-09-28T01:57:52.881Z,14.50
2022-09-28T02:00:26.299Z,14.30
2022-09-28T02:03:12.584Z,14.20
2022-09-28T02:05:55.298Z,14.00
2022-09-28T02:08:33.391Z,14.00
2022-09-28T02:11:13.922Z,14.00
2022-09-28T02:14:05.573Z,13.90
2022-09-28T02:16:41.686Z,14.00
2022-09-28T02:19:19.676Z,14.00
2022-09-28T02:22:04.545Z,14.00
2022-09-28T02:24:58.486Z,14.10
2022-09-28T02:28:00.302Z,14.00
2022-09-28T02:30:35.729Z,14.00
2022-09-28T02:33:16.535Z,14.00
2022-09-28T02:35:48.831Z,13.90
2022-09-28T02:38:22.251Z,13.90
2022-09-28T02:41:34.899Z,13.90
2022-09-28T02:45:03.929Z,13.90
2022-09-28T02:47:43.636Z,13.90
2022-09-28T02:50:37.910Z,14.00
2022-09-28T02:53:44.211Z,14.10
2022-09-28T02:56:52.279Z,13.90
2022-09-28T02:59:39.902Z,13.90
2022-09-28T03:02:14.552Z,13.80
2022-09-28T03:05:11.164Z,13.80
2022-09-28T03:07:59.735Z,13.70
2022-09-28T03:10:46.751Z,13.60
2022-09-28T03:13:20.486Z,13.60
2022-09-28T03:15:52.421Z,13.60
2022-09-28T03:18:24.559Z,13.60
2022-09-28T03:20:56.721Z,13.60
2022-09-28T03:23:28.664Z,13.60
2022-09-28T03:26:00.662Z,13.60
2022-09-28T03:28:36.313Z,13.60
2022-09-28T03:31:08.993Z,13.60
2022-09-28T03:33:41.267Z,13.50
2022-09-28T03:36:15.136Z,13.60
2022-09-28T03:38:47.025Z,13.70
2022-09-28T03:41:18.934Z,13.80
2022-09-28T03:43:51.121Z,13.80
2022-09-28T03:46:23.142Z,13.90
2022-09-28T03:48:59.263Z,13.90
2022-09-28T03:51:31.154Z,14.00
2022-09-28T03:54:03.086Z,13.90
2022-09-28T03:56:35.561Z,13.90
2022-09-28T03:59:07.780Z,13.80
2022-09-28T04:01:41.283Z,13.70
2022-09-28T04:04:14.159Z,13.70
2022-09-28T04:06:46.082Z,13.60
2022-09-28T04:09:18.031Z,13.60
2022-09-28T04:12:03.337Z,13.60
2022-09-28T04:14:36.919Z,13.60
2022-09-28T04:17:09.195Z,13.70
2022-09-28T04:19:43.173Z,13.70
2022-09-28T04:22:24.326Z,13.70
2022-09-28T04:24:56.146Z,13.50
2022-09-28T04:27:46.885Z,13.50
2022-09-28T04:30:18.756Z,13.40
2022-09-28T04:32:50.836Z,13.50
2022-09-28T04:35:22.820Z,13.50
2022-09-28T04:37:55.090Z,13.50
2022-09-28T04:40:27.093Z,13.50
2022-09-28T04:42:59.140Z,13.50
2022-09-28T04:45:31.084Z,13.60
2022-09-28T04:48:10.555Z,13.70
2022-09-28T04:50:59.048Z,13.50
2022-09-28T04:53:31.650Z,13.40
2022-09-28T04:56:11.634Z,13.40
2022-09-28T04:58:50.302Z,13.40
2022-09-28T05:01:24.711Z,13.50
2022-09-28T05:04:02.426Z,13.50
2022-09-28T05:07:01.480Z,13.60
2022-09-28T05:09:37.670Z,13.60
2022-09-28T05:12:10.357Z,13.60
2022-09-28T05:14:42.743Z,13.50
2022-09-28T05:17:14.560Z,13.70
2022-09-28T05:20:21.769Z,13.70
2022-09-28T05:22:53.676Z,13.70
2022-09-28T05:25:26.265Z,13.80
2022-09-28T05:28:07.898Z,13.70
2022-09-28T05:30:58.062Z,13.80
2022-09-28T05:33:41.696Z,13.90
2022-09-28T05:36:18.380Z,14.00
2022-09-28T05:38:50.274Z,14.00
2022-09-28T05:41:22.213Z,14.10
2022-09-28T05:43:55.059Z,14.20
2022-09-28T05:46:27.680Z,14.20
2022-09-28T05:49:00.382Z,14.20
2022-09-28T05:51:32.861Z,14.10
2022-09-28T05:54:06.197Z,14.10
2022-09-28T05:56:41.309Z,14.20
2022-09-28T05:59:13.756Z,14.10
2022-09-28T06:01:46.652Z,14.30
2022-09-28T06:04:19.483Z,14.40
2022-09-28T06:06:53.206Z,14.50
2022-09-28T06:09:26.199Z,14.50
2022-09-28T06:12:07.169Z,14.50
2022-09-28T06:14:51.016Z,14.50
2022-09-28T06:17:23.038Z,14.70
2022-09-28T06:20:14.856Z,14.80
2022-09-28T06:23:01.153Z,14.80
2022-09-28T06:25:33.244Z,14.90
2022-09-28T06:28:09.951Z,14.90
2022-09-28T06:30:43.630Z,15.10
2022-09-28T06:33:18.003Z,15.20
2022-09-28T06:35:52.138Z,15.20
2022-09-28T06:38:24.086Z,15.30
2022-09-28T06:40:57.680Z,15.30
2022-09-28T06:43:34.252Z,15.40
2022-09-28T06:46:32.784Z,15.60
2022-09-28T06:49:31.049Z,15.50
2022-09-28T06:52:31.570Z,15.50
2022-09-28T06:55:22.799Z,15.60
2022-09-28T06:58:09.527Z,15.60
2022-09-28T07:00:41.995Z,15.70
2022-09-28T07:03:16.229Z,15.70
2022-09-28T07:06:06.743Z,15.70
2022-09-28T07:09:06.844Z,15.60
2022-09-28T07:12:25.441Z,15.70
2022-09-28T07:15:07.391Z,15.90
2022-09-28T07:17:53.098Z,16.00
2022-09-28T07:20:43.265Z,16.00
2022-09-28T07:23:20.100Z,16.00
2022-09-28T07:26:24.781Z,16.10
2022-09-28T07:29:19.780Z,16.30
2022-09-28T07:32:17.732Z,16.40
2022-09-28T07:35:19.949Z,16.70
2022-09-28T07:38:00.349Z,16.90
2022-09-28T07:40:53.360Z,17.10
2022-09-28T07:43:25.749Z,17.40
2022-09-28T07:45:59.030Z,17.60
2022-09-28T07:48:36.710Z,17.70
2022-09-28T07:51:44.771Z,17.80
2022-09-28T07:54:52.108Z,17.80
2022-09-28T07:57:39.994Z,17.80
2022-09-28T08:00:34.770Z,18.00
2022-09-28T08:03:07.287Z,18.10
2022-09-28T08:05:39.600Z,18.20
2022-09-28T08:08:11.511Z,18.30
2022-09-28T08:10:46.936Z,18.40
2022-09-28T08:13:48.343Z,18.40
2022-09-28T08:16:40.893Z,18.60
2022-09-28T08:19:19.532Z,18.80
2022-09-28T08:21:52.825Z,19.10
2022-09-28T08:24:24.808Z,19.30
2022-09-28T08:26:58.974Z,19.40
2022-09-28T08:29:33.495Z,19.50
2022-09-28T08:32:35.793Z,19.50
2022-09-28T08:35:26.524Z,19.70
2022-09-28T08:38:15.435Z,19.60
2022-09-28T08:41:32.307Z,19.80
2022-09-28T08:44:25.096Z,20.10
2022-09-28T08:47:54.565Z,20.30
2022-09-28T08:51:00.731Z,20.40
2022-09-28T08:54:29.549Z,20.80
2022-09-28T08:57:11.907Z,21.00
2022-09-28T08:59:59.741Z,20.90
2022-09-28T09:02:39.803Z,21.00
2022-09-28T09:05:39.502Z,21.30
2022-09-28T09:08:31.063Z,21.40
2022-09-28T09:11:43.829Z,21.40
2022-09-28T09:14:38.976Z,21.40
2022-09-28T09:17:23.235Z,21.40
2022-09-28T09:20:13.399Z,21.30
2022-09-28T09:23:32.079Z,21.50
2022-09-28T09:26:22.517Z,21.60
2022-09-28T09:28:59.856Z,21.40
2022-09-28T09:32:03.021Z,21.40
2022-09-28T09:34:47.313Z,21.40
2022-09-28T09:37:40.879Z,21.50
2022-09-28T09:40:48.235Z,21.60
2022-09-28T09:44:16.367Z,21.80
2022-09-28T09:47:31.301Z,21.70
2022-09-28T09:50:31.505Z,21.80
2022-09-28T09:53:36.185Z,22.10
2022-09-28T09:56:44.218Z,22.50
2022-09-28T09:59:33.716Z,22.80
2022-09-28T10:02:34.988Z,23.30
2022-09-28T10:05:25.511Z,23.50
2022-09-28T10:08:10.896Z,23.40
2022-09-28T10:11:02.346Z,23.00
2022-09-28T10:13:35.514Z,23.00
2022-09-28T10:16:14.376Z,23.30
2022-09-28T10:18:55.821Z,23.60
2022-09-28T10:21:51.924Z,23.70
2022-09-28T10:24:46.054Z,23.60
2022-09-28T10:27:33.760Z,22.50
2022-09-28T10:30:17.649Z,21.90
2022-09-28T10:32:53.793Z,22.00
2022-09-28T10:35:29.569Z,21.60
2022-09-28T10:38:07.420Z,21.10
2022-09-28T10:41:00.622Z,20.80
2022-09-28T10:44:07.166Z,21.00
2022-09-28T10:46:56.779Z,21.50
2022-09-28T10:49:37.562Z,21.90
2022-09-28T10:52:45.181Z,21.90
2022-09-28T10:55:32.639Z,21.30
2022-09-28T10:58:26.142Z,21.30
2022-09-28T11:01:05.872Z,21.00
2022-09-28T11:03:54.610Z,21.10
2022-09-28T11:06:41.844Z,21.20
2022-09-28T11:09:34.803Z,21.20
2022-09-28T11:12:16.627Z,21.40
2022-09-28T11:14:55.502Z,21.70
2022-09-28T11:17:32.718Z,22.10
2022-09-28T11:20:28.351Z,22.40
2022-09-28T11:23:29.489Z,22.00
2022-09-28T11:26:11.923Z,21.30
2022-09-28T11:28:50.539Z,21.30
2022-09-28T11:31:29.246Z,21.60
2022-09-28T11:34:41.804Z,21.70
2022-09-28T11:38:09.898Z,21.30
2022-09-28T11:41:55.591Z,20.60
2022-09-28T11:44:44.559Z,20.50
2022-09-28T11:47:51.233Z,20.20
2022-09-28T11:50:45.492Z,20.60
2022-09-28T11:53:31.499Z,20.80
2022-09-28T11:56:29.367Z,20.90
2022-09-28T11:59:18.732Z,20.80
2022-09-28T12:01:56.826Z,20.90
2022-09-28T12:04:43.985Z,20.90
2022-09-28T12:07:35.675Z,21.10
2022-09-28T12:10:23.623Z,21.50
2022-09-28T12:13:28.835Z,21.90
2022-09-28T12:16:38.486Z,22.20
2022-09-28T12:19:20.764Z,22.30
2022-09-28T12:21:59.605Z,21.60
2022-09-28T12:24:50.854Z,21.10
2022-09-28T12:27:50.554Z,21.20
2022-09-28T12:30:27.159Z,21.60
2022-09-28T12:33:04.718Z,22.00
2022-09-28T12:36:03.951Z,22.30
2022-09-28T12:39:17.423Z,21.70
2022-09-28T12:41:54.852Z,21.40
2022-09-28T12:45:00.685Z,21.30
2022-09-28T12:48:10.446Z,21.20
2022-09-28T12:51:00.510Z,21.20
2022-09-28T12:53:51.328Z,21.40
2022-09-28T12:57:06.432Z,21.30
2022-09-28T13:00:15.898Z,21.40
2022-09-28T13:03:13.361Z,21.40
2022-09-28T13:06:11.104Z,21.20
2022-09-28T13:08:48.514Z,21.00
2022-09-28T13:11:33.267Z,21.10
2022-09-28T13:14:10.935Z,21.00
2022-09-28T13:17:22.758Z,20.90
2022-09-28T13:19:58.141Z,20.90
2022-09-28T13:23:02.366Z,20.90
2022-09-28T13:25:36.409Z,20.70
2022-09-28T13:28:11.481Z,20.50
2022-09-28T13:30:45.192Z,20.20
2022-09-28T13:33:33.759Z,20.10
2022-09-28T13:36:30.538Z,19.90
2022-09-28T13:39:02.527Z,19.90
2022-09-28T13:41:38.011Z,20.00
2022-09-28T13:44:13.171Z,20.20
2022-09-28T13:47:11.403Z,20.30
2022-09-28T13:49:48.759Z,20.10
2022-09-28T13:52:20.571Z,20.20
2022-09-28T13:54:58.099Z,20.20
2022-09-28T13:57:35.975Z,20.30
2022-09-28T14:00:19.242Z,20.20
2022-09-28T14:02:58.870Z,20.20
2022-09-28T14:05:53.802Z,20.30
2022-09-28T14:08:34.686Z,20.30
2022-09-28T14:11:40.238Z,20.20
2022-09-28T14:14:13.778Z,20.30
2022-09-28T14:16:45.726Z,20.30
2022-09-28T14:19:31.377Z,20.30
2022-09-28T14:22:15.034Z,20.20
2022-09-28T14:24:49.961Z,20.30
2022-09-28T14:28:00.307Z,20.40
2022-09-28T14:30:38.177Z,20.50
2022-09-28T14:33:19.376Z,20.50
2022-09-28T14:36:02.274Z,20.40
2022-09-28T14:39:18.943Z,20.60
2022-09-28T14:41:52.243Z,20.60
2022-09-28T14:44:25.009Z,20.60
2022-09-28T14:47:34.174Z,20.50
2022-09-28T14:50:23.249Z,20.70
2022-09-28T14:53:04.340Z,20.50
2022-09-28T14:55:42.219Z,20.40
2022-09-28T14:58:22.550Z,20.40
2022-09-28T15:01:02.845Z,20.10
2022-09-28T15:03:38.251Z,19.90
2022-09-28T15:06:16.666Z,19.90
2022-09-28T15:08:48.705Z,19.90
2022-09-28T15:11:24.149Z,19.90
2022-09-28T15:14:07.338Z,19.90
2022-09-28T15:16:39.201Z,20.00
2022-09-28T15:19:22.835Z,19.90
2022-09-28T15:21:54.987Z,20.00
2022-09-28T15:24:33.579Z,20.00
2022-09-28T15:27:15.631Z,19.80
2022-09-28T15:30:01.757Z,19.80
2022-09-28T15:32:33.699Z,19.70
2022-09-28T15:35:26.318Z,19.60
2022-09-28T15:37:58.318Z,19.60
2022-09-28T15:40:37.803Z,19.50
2022-09-28T15:43:29.093Z,19.50
2022-09-28T15:46:18.479Z,19.50
2022-09-28T15:48:55.406Z,19.60
2022-09-28T15:51:28.999Z,19.60
2022-09-28T15:54:09.477Z,19.60
2022-09-28T15:56:59.687Z,19.60
2022-09-28T15:59:39.648Z,19.50
2022-09-28T16:02:25.277Z,19.60
2022-09-28T16:05:00.546Z,19.70
2022-09-28T16:07:40.775Z,19.60
2022-09-28T16:10:12.588Z,19.50
2022-09-28T16:12:48.595Z,19.50
2022-09-28T16:15:21.576Z,19.50
2022-09-28T16:18:06.947Z,19.50
2022-09-28T16:20:43.243Z,19.50
2022-09-28T16:23:19.801Z,19.50
2022-09-28T16:26:03.049Z,19.50
2022-09-28T16:28:37.636Z,19.50
2022-09-28T16:31:12.458Z,19.50
2022-09-28T16:34:11.549Z,19.50
2022-09-28T16:36:46.082Z,19.40
2022-09-28T16:39:19.585Z,19.40
2022-09-28T16:41:59.527Z,19.40
2022-09-28T16:44:32.987Z,19.40
2022-09-28T16:47:06.369Z,19.30
2022-09-28T16:49:39.988Z,19.20
2022-09-28T16:52:41.759Z,19.00
2022-09-28T16:55:38.933Z,19.10
2022-09-28T16:58:08.634Z,18.90
2022-09-28T17:00:43.508Z,18.90
2022-09-28T17:03:18.449Z,19.00
2022-09-28T17:05:51.523Z,18.90
2022-09-28T17:08:25.171Z,18.80
2022-09-28T17:11:14.921Z,18.50
2022-09-28T17:13:48.664Z,18.40
2022-09-28T17:16:43.570Z,18.30
2022-09-28T17:19:25.596Z,18.30
2022-09-28T17:21:57.572Z,18.30
2022-09-28T17:24:29.526Z,18.30
2022-09-28T17:27:03.293Z,18.20
2022-09-28T17:29:35.166Z,18.20
2022-09-28T17:32:17.307Z,18.20
2022-09-28T17:35:00.726Z,18.20
2022-09-28T17:37:36.272Z,18.10
2022-09-28T17:40:28.296Z,18.00
2022-09-28T17:43:01.090Z,17.90
2022-09-28T17:45:39.035Z,17.90
2022-09-28T17:48:15.867Z,18.10
2022-09-28T17:50:48.301Z,18.20
2022-09-28T17:53:20.218Z,18.20
2022-09-28T17:55:52.724Z,18.10
2022-09-28T17:58:24.782Z,18.00
2022-09-28T18:00:56.597Z,17.90
2022-09-28T18:03:28.474Z,17.90
2022-09-28T18:06:06.625Z,18.00
2022-09-28T18:08:38.786Z,18.10
2022-09-28T18:11:11.503Z,18.10
2022-09-28T18:13:45.989Z,18.00
2022-09-28T18:16:19.559Z,18.00
2022-09-28T18:18:51.460Z,17.90
2022-09-28T18:21:23.480Z,17.80
2022-09-28T18:23:55.419Z,17.70
2022-09-28T18:26:27.359Z,17.70
2022-09-28T18:28:59.243Z,17.80
2022-09-28T18:31:31.127Z,17.80
2022-09-28T18:34:02.978Z,17.80
2022-09-28T18:36:35.888Z,17.80
2022-09-28T18:39:07.778Z,17.70
2022-09-28T18:41:39.758Z,17.60
2022-09-28T18:44:11.572Z,17.60
2022-09-28T18:46:43.633Z,17.60
2022-09-28T18:49:15.597Z,17.60
2022-09-28T18:51:47.763Z,17.60
2022-09-28T18:54:19.690Z,17.50
2022-09-28T18:56:56.272Z,17.50
2022-09-28T18:59:28.442Z,17.50
2022-09-28T19:02:01.699Z,17.60
2022-09-28T19:04:33.731Z,17.60
2022-09-28T19:07:06.587Z,17.50
2022-09-28T19:09:43.857Z,17.40
2022-09-28T19:12:15.998Z,17.30
2022-09-28T19:14:47.849Z,17.20
2022-09-28T19:17:19.800Z,17.10
2022-09-28T19:19:52.100Z,17.10
2022-09-28T19:22:23.938Z,17.20
2022-09-28T19:24:55.879Z,17.20
2022-09-28T19:27:27.715Z,17.20
2022-09-28T19:29:59.561Z,17.30
2022-09-28T19:32:31.415Z,17.30
2022-09-28T19:35:04.133Z,17.20
2022-09-28T19:37:39.457Z,17.10
2022-09-28T19:40:11.358Z,17.10
2022-09-28T19:42:43.155Z,17.10
2022-09-28T19:45:15.107Z,17.00
2022-09-28T19:47:49.181Z,17.00
2022-09-28T19:50:21.274Z,16.90
2022-09-28T19:52:53.292Z,16.80
2022-09-28T19:55:25.122Z,16.80
2022-09-28T19:57:57.112Z,16.70
2022-09-28T20:00:29.059Z,16.70
2022-09-28T20:03:00.987Z,16.60
2022-09-28T20:05:32.893Z,16.50
2022-09-28T20:08:05.097Z,16.30
2022-09-28T20:10:37.003Z,16.30
2022-09-28T20:13:08.847Z,16.20
2022-09-28T20:15:41.584Z,16.20
2022-09-28T20:18:13.778Z,16.20
2022-09-28T20:20:45.611Z,16.20
2022-09-28T20:23:17.782Z,16.10
2022-09-28T20:25:52.728Z,16.20
2022-09-28T20:28:25.087Z,16.30
2022-09-28T20:31:12.365Z,16.30
2022-09-28T20:33:44.642Z,16.30
2022-09-28T20:36:22.133Z,16.30
2022-09-28T20:38:54.691Z,16.20
2022-09-28T20:41:27.451Z,16.10
2022-09-28T20:44:04.165Z,16.00
2022-09-28T20:46:38.223Z,15.90
2022-09-28T20:49:10.320Z,15.80
2022-09-28T20:51:42.238Z,15.80
2022-09-28T20:54:14.272Z,15.90
2022-09-28T20:56:48.195Z,15.90
2022-09-28T20:59:22.874Z,16.00
2022-09-28T21:01:54.779Z,16.00
2022-09-28T21:04:27.074Z,16.00
2022-09-28T21:06:58.902Z,15.90
2022-09-28T21:09:32.155Z,15.80
2022-09-28T21:12:05.004Z,15.70
2022-09-28T21:14:36.823Z,15.70
2022-09-28T21:17:08.648Z,15.70
2022-09-28T21:19:40.596Z,15.60
2022-09-28T21:22:12.486Z,15.50
2022-09-28T21:24:44.385Z,15.60
2022-09-28T21:27:16.603Z,15.70
2022-09-28T21:29:48.516Z,15.80
2022-09-28T21:32:20.423Z,15.90
2022-09-28T21:34:52.572Z,15.80
2022-09-28T21:37:24.397Z,15.80
2022-09-28T21:39:56.365Z,15.70
2022-09-28T21:42:28.215Z,15.70
2022-09-28T21:45:00.049Z,15.70
2022-09-28T21:47:31.967Z,15.60
2022-09-28T21:50:04.028Z,15.60
2022-09-28T21:52:36.270Z,15.60
2022-09-28T21:55:08.655Z,15.70
2022-09-28T21:57:40.523Z,15.70
2022-09-28T22:00:14.222Z,15.70
2022-09-28T22:02:46.377Z,15.70
2022-09-28T22:05:19.210Z,15.70
2022-09-28T22:07:51.099Z,15.70
2022-09-28T22:10:22.981Z,15.60
2022-09-28T22:12:54.869Z,15.60
2022-09-28T22:15:26.718Z,15.40
2022-09-28T22:17:58.537Z,15.30
2022-09-28T22:20:30.391Z,15.30
2022-09-28T22:23:02.211Z,15.20
2022-09-28T22:25:35.584Z,15.20
2022-09-28T22:28:07.465Z,15.20
2022-09-28T22:30:39.316Z,15.30
2022-09-28T22:33:11.164Z,15.40
2022-09-28T22:35:42.996Z,15.40
2022-09-28T22:38:15.639Z,15.50
2022-09-28T22:40:49.186Z,15.50
2022-09-28T22:43:23.339Z,15.50
2022-09-28T22:46:07.254Z,15.50
2022-09-28T22:48:39.716Z,15.50
2022-09-28T22:51:11.727Z,15.50
2022-09-28T22:53:44.009Z,15.50
2022-09-28T22:56:19.059Z,15.40
2022-09-28T22:58:51.223Z,15.40
2022-09-28T23:01:26.003Z,15.50
2022-09-28T23:03:59.511Z,15.50
2022-09-28T23:06:33.048Z,15.50
2022-09-28T23:09:05.155Z,15.60
2022-09-28T23:11:37.334Z,15.50
2022-09-28T23:14:11.128Z,15.50
2022-09-28T23:16:42.933Z,15.40
2022-09-28T23:19:14.834Z,15.40
2022-09-28T23:21:46.648Z,15.50
2022-09-28T23:24:18.950Z,15.50
2022-09-28T23:26:50.859Z,15.50
2022-09-28T23:29:22.780Z,15.50
2022-09-28T23:31:54.638Z,15.50
2022-09-28T23:34:26.459Z,15.40
2022-09-28T23:36:58.251Z,15.40
2022-09-28T23:39:30.064Z,15.50
2022-09-28T23:42:02.723Z,15.50
2022-09-28T23:44:36.522Z,15.50
2022-09-28T23:47:17.108Z,15.40
2022-09-28T23:49:49.011Z,15.40
2022-09-28T23:52:20.911Z,15.40
2022-09-28T23:54:52.822Z,15.50
2022-09-28T23:57:25.385Z,15.50
2022-09-28T23:59:57.364Z,15.50
